Weather observations for the past three days for
Pompano Beach, Pompano Beach Airpark
Imperial (Metric)
Date Time (edt) Wind (mph) Vis. (mi.) Weather Sky Cond. Temperature (ºF) Relative Humidity Wind Chill (°F) Heat Index (°F) Pressure Precipitation (in)
Air Dwpt 6 hour altimeter (in) sea level (mb) 1 hr 3 hr 6 hr
Max. Min.
08 11:53 E 12 10.00 Fair CLR 88 66.9 50% 91 30 1015.9
08 10:53 N 3 10.00 Fair CLR 88 66 48% 90 30.01 1016.2
08 09:53 NW 9 10.00 Fair CLR 84.9 66.9 55% 88 30 1016.1
08 08:53 N 13 10.00 Fair CLR 81 66.9 62% 83 29.99 1015.8
08 07:53 NW 7 10.00 Fair CLR 77 66 81 73.9 69% 79 29.98 1015.3
08 06:53 NW 5 10.00 Fair CLR 73.9 66.9 79% 29.96 1014.5
08 05:53 NW 6 10.00 Fair CLR 73.9 66.9 79% 29.94 1013.8
08 04:53 NW 6 10.00 Fair CLR 75 68 79% 76 29.94 1013.8
08 03:53 NW 5 10.00 Fair CLR 75.9 71.1 85% 76 29.93 1013.6
08 02:53 W 5 10.00 Fair CLR 79 73 82% 82 29.94 1013.9
08 01:53 S 6 10.00 Fair CLR 80.1 72 82.9 80.1 76% 84 29.95 1014.3
08 00:53 S 8 10.00 Fair CLR 81 72 74% 85 29.96 1014.6
07 23:53 SE 8 10.00 Fair CLR 81 72 74% 85 29.97 1014.9
07 22:53 SE 7 10.00 Fair CLR 82 70 67% 86 29.97 1015.0
07 21:53 SE 6 10.00 Fair CLR 82 69.1 65% 85 29.96 1014.7
07 20:53 SE 8 10.00 Fair CLR 82.9 68 61% 86 29.96 1014.4
07 19:53 SE 13 10.00 Fair CLR 82.9 68 89.1 82.9 61% 86 29.95 1014.1
07 18:53 S 13 10.00 Fair CLR 84.9 69.1 59% 89 29.94 1013.9
07 17:53 SE 12 G 21 10.00 Fair CLR 86 66.9 53% 89 29.94 1013.8
07 16:53 SE 14 10.00 Fair CLR 86 68 55% 89 29.94 1013.8
07 15:53 SE 12 10.00 Fair CLR 88 70 55% 93 29.95 1014.2
07 14:53 SE 13 10.00 Fair CLR 88 70 55% 93 29.97 1014.8
07 13:53 SE 13 10.00 Fair CLR 88 70 89.1 78.1 55% 93 29.99 1015.6
07 12:53 SE 12 10.00 Fair CLR 88 70 55% 93 30.01 1016.1
07 11:53 SE 9 10.00 Fair CLR 86 70 59% 91 30.02 1016.8
07 10:53 SE 9 10.00 Fair CLR 84.9 70 61% 89 30.03 1017.1
07 09:53 SW 6 10.00 Fair CLR 84 68 59% 87 30.04 1017.2
07 08:53 S 6 10.00 Fair CLR 82 72 72% 87 30.03 1017.0
07 07:53 Calm 10.00 Fair CLR 78.1 70 78.1 72 76% 80 30.02 1016.7
07 06:53 Calm 10.00 Fair CLR 72 68 87% 29.99 1015.7
07 05:53 Calm 10.00 Fair CLR 72 66.9 84% 29.98 1015.1
07 04:53 Calm 10.00 Fair CLR 75.9 68 77% 77 29.97 1014.9
07 03:53 SE 6 10.00 Fair CLR 77 68 74% 79 29.97 1015.0
07 02:53 SE 7 10.00 Fair CLR 77 66.9 71% 79 29.98 1015.4
07 01:53 SE 6 10.00 Fair CLR 77 66 81 77 69% 79 30 1016.1
07 00:53 SE 7 10.00 Fair CLR 77 66.9 71% 79 30.02 1016.5
06 23:53 E 5 10.00 Fair CLR 78.1 66.9 69% 80 30.02 1016.7
06 22:53 E 8 10.00 Fair CLR 79 66.9 67% 81 30.03 1016.9
06 21:53 E 6 10.00 Fair CLR 80.1 66 62% 82 30.02 1016.7
06 20:53 E 7 10.00 Fair CLR 80.1 66 62% 82 30.02 1016.6
06 19:53 E 7 10.00 Fair CLR 81 64.9 84.9 81 58% 83 30.02 1016.5
06 18:53 E 9 10.00 Fair CLR 82.9 66 57% 85 30.01 1016.4
06 17:53 E 10 10.00 Fair CLR 84 66 55% 86 30 1015.9
06 16:53 E 9 10.00 Fair CLR 84 69.1 61% 88 29.99 1015.8
06 15:53 E 12 10.00 Fair CLR 82.9 71.1 67% 88 30.01 1016.2
06 14:53 E 10 10.00 Fair CLR 84.9 71.1 63% 90 30.03 1016.8
06 13:53 E 12 10.00 Fair CLR 84 72 84 79 67% 90 30.04 1017.2
06 12:53 E 9 10.00 Fair CLR 84 72 67% 90 30.05 1017.7
06 11:53 Vrbl 6 10.00 A Few Clouds FEW019 84 72 67% 90 30.05 1017.7
06 10:53 E 7 10.00 A Few Clouds FEW018 82 71.1 69% 86 30.05 1017.6
06 09:53 SE 9 10.00 A Few Clouds FEW020 82 72 72% 87 30.04 1017.2
06 08:53 SE 8 10.00 Fair CLR 80.1 71.1 74% 84 30.03 1016.9
06 07:53 E 7 10.00 Fair CLR 79 71.1 79 77 77% 82 30.02 1016.8
06 06:53 E 5 10.00 Fair CLR 77 71.1 82% 79 30.01 1016.1
06 05:53 E 6 10.00 A Few Clouds FEW017 77 71.1 82% 79 29.99 1015.7
06 04:53 E 7 10.00 Fair CLR 77 71.1 82% 79 29.98 1015.4
06 03:53 E 8 10.00 Fair CLR 77 71.1 82% 79 29.98 1015.3
06 02:53 E 9 10.00 A Few Clouds FEW017 78.1 71.1 79% 80 29.98 1015.4
06 01:53 E 9 10.00 Fair CLR 78.1 70 79 78.1 76% 80 29.99 1015.7
06 00:53 E 9 10.00 A Few Clouds FEW023 FEW070 78.1 70 76% 80 30.01 1016.2
05 23:53 E 8 10.00 Fair CLR 78.1 70 76% 80 30.01 1016.4
05 22:53 E 10 10.00 A Few Clouds FEW021 79 70 74% 82 30.01 1016.2
05 21:53 E 12 10.00 A Few Clouds FEW024 79 70 74% 82 29.99 1015.5
05 20:53 NE 13 10.00 Fair CLR 78.1 69.1 74% 80 29.98 1015.3
05 19:53 NE 14 10.00 Partly Cloudy SCT028 79 70 84.9 79 74% 82 29.97 1015.0
05 18:53 NE 16 10.00 A Few Clouds FEW021 81 70 69% 84 29.95 1014.4
05 17:53 NE 18 10.00 Mostly Cloudy SCT019 BKN025 BKN030 82 71.1 69% 86 29.95 1014.3
05 16:53 E 16 10.00 A Few Clouds FEW018 82 71.1 69% 86 29.94 1013.9
05 15:53 NE 15 G 26 10.00 Partly Cloudy SCT020 84 71.1 65% 89 29.95 1014.3
05 13:53 E 10 10.00 Partly Cloudy SCT015 82.9 72 84 78.1 70% 88 29.98 1015.2 0.02
05 12:53 E 9 10.00 Partly Cloudy FEW020 SCT055 82.9 72 70% 88 29.98 1015.3
Date Time (edt) Wind (mph) Vis. (mi.) Weather Sky Cond. Air Dwpt Max. Min. Relative Humidity Wind Chill (°F) Heat Index (°F) altimeter (in) sea level (mb) 1 hr 3 hr 6 hr
6 hour
Temperature (ºF) Pressure Precipitation (in)